createdAt,value
2019-03-24T00:01:59.630Z,100.00
2019-03-24T00:04:43.252Z,100.00
2019-03-24T00:07:33.514Z,100.00
2019-03-24T00:10:17.446Z,100.00
2019-03-24T00:13:00.176Z,100.00
2019-03-24T00:16:01.670Z,100.00
2019-03-24T00:18:48.306Z,100.00
2019-03-24T00:21:31.412Z,100.00
2019-03-24T00:24:21.701Z,100.00
2019-03-24T00:27:12.142Z,100.00
2019-03-24T00:30:02.458Z,100.00
2019-03-24T00:32:48.675Z,100.00
2019-03-24T00:35:38.927Z,100.00
2019-03-24T00:38:21.496Z,100.00
2019-03-24T00:41:11.779Z,100.00
2019-03-24T00:43:55.155Z,100.00
2019-03-24T00:46:45.441Z,100.00
2019-03-24T00:49:28.033Z,100.00
2019-03-24T00:52:18.284Z,100.00
2019-03-24T00:55:01.496Z,100.00
2019-03-24T00:57:51.797Z,100.00
2019-03-24T01:01:04.270Z,100.00
2019-03-24T01:03:47.495Z,100.00
2019-03-24T01:06:29.789Z,100.00
2019-03-24T01:09:12.048Z,100.00
2019-03-24T01:12:02.381Z,100.00
2019-03-24T01:18:06.405Z,100.00
2019-03-24T01:20:48.827Z,100.00
2019-03-24T01:23:32.271Z,100.00
2019-03-24T01:26:33.705Z,100.00
2019-03-24T01:29:16.179Z,100.00
2019-03-24T01:32:06.433Z,100.00
2019-03-24T01:34:49.153Z,100.00
2019-03-24T01:37:39.441Z,100.00
2019-03-24T01:40:23.455Z,100.00
2019-03-24T01:46:10.475Z,100.00
2019-03-24T01:49:00.803Z,100.00
2019-03-24T01:51:51.187Z,100.00
2019-03-24T01:54:41.509Z,100.00
2019-03-24T02:00:26.872Z,100.00
2019-03-24T02:03:17.124Z,100.00
2019-03-24T02:06:00.549Z,100.00
2019-03-24T02:08:50.860Z,100.00
2019-03-24T02:11:41.234Z,100.00
2019-03-24T02:14:31.534Z,100.00
2019-03-24T02:17:21.811Z,100.00
2019-03-24T02:20:12.163Z,100.00
2019-03-24T02:22:54.663Z,100.00
2019-03-24T02:25:42.077Z,100.00
2019-03-24T02:28:25.083Z,100.00
2019-03-24T02:31:15.398Z,100.00
2019-03-24T02:37:08.866Z,100.00
2019-03-24T02:39:51.610Z,100.00
2019-03-24T02:42:41.979Z,100.00
2019-03-24T02:45:32.259Z,100.00
2019-03-24T02:48:22.532Z,100.00
2019-03-24T02:51:12.875Z,100.00
2019-03-24T02:54:03.318Z,100.00
2019-03-24T02:56:53.655Z,100.00
2019-03-24T02:59:43.936Z,100.00
2019-03-24T03:02:34.204Z,100.00
2019-03-24T03:08:39.750Z,100.00
2019-03-24T03:11:30.020Z,100.00
2019-03-24T03:14:15.401Z,100.00
2019-03-24T03:17:05.750Z,100.00
2019-03-24T03:19:48.642Z,100.00
2019-03-24T03:22:38.953Z,100.00
2019-03-24T03:25:21.971Z,100.00
2019-03-24T03:28:23.748Z,100.00
2019-03-24T03:31:06.225Z,100.00
2019-03-24T03:33:56.548Z,100.00
2019-03-24T03:36:46.844Z,100.00
2019-03-24T03:39:37.167Z,100.00
2019-03-24T03:42:20.188Z,100.00
2019-03-24T03:45:11.059Z,100.00
2019-03-24T03:48:01.309Z,100.00
2019-03-24T03:50:48.333Z,100.00
2019-03-24T03:53:38.651Z,100.00
2019-03-24T03:56:21.328Z,100.00
2019-03-24T03:59:22.925Z,100.00
2019-03-24T04:02:07.221Z,100.00
2019-03-24T04:04:57.471Z,100.00
2019-03-24T04:07:41.338Z,100.00
2019-03-24T04:10:31.601Z,100.00
2019-03-24T04:13:14.277Z,100.00
2019-03-24T04:16:04.511Z,100.00
2019-03-24T04:18:49.143Z,100.00
2019-03-24T04:21:39.379Z,100.00
2019-03-24T04:24:23.066Z,100.00
2019-03-24T04:27:13.349Z,100.00
2019-03-24T04:29:55.959Z,100.00
2019-03-24T04:32:46.240Z,100.00
2019-03-24T04:35:30.263Z,100.00
2019-03-24T04:38:20.580Z,100.00
2019-03-24T04:41:04.920Z,100.00
2019-03-24T04:43:47.687Z,100.00
2019-03-24T04:46:38.043Z,100.00
2019-03-24T04:49:28.381Z,100.00
2019-03-24T04:52:18.725Z,100.00
2019-03-24T04:58:22.987Z,100.00
2019-03-24T05:01:13.357Z,100.00
2019-03-24T05:04:03.856Z,100.00
2019-03-24T05:06:35.324Z,100.00
2019-03-24T05:12:41.214Z,100.00
2019-03-24T05:15:31.462Z,100.00
2019-03-24T05:18:21.751Z,100.00
2019-03-24T05:21:08.407Z,100.00
2019-03-24T05:23:51.495Z,100.00
2019-03-24T05:26:41.949Z,100.00
2019-03-24T05:29:25.807Z,100.00
2019-03-24T05:32:16.042Z,100.00
2019-03-24T05:35:06.530Z,100.00
2019-03-24T05:37:56.836Z,100.00
2019-03-24T05:40:40.634Z,100.00
2019-03-24T05:43:30.918Z,100.00
2019-03-24T05:46:17.429Z,100.00
2019-03-24T05:49:07.680Z,100.00
2019-03-24T05:51:50.775Z,100.00
2019-03-24T05:54:41.034Z,100.00
2019-03-24T05:57:24.170Z,100.00
2019-03-24T06:00:14.556Z,100.00
2019-03-24T06:02:57.740Z,100.00
2019-03-24T06:05:48.020Z,100.00
2019-03-24T06:08:30.849Z,100.00
2019-03-24T06:11:21.112Z,100.00
2019-03-24T06:14:04.271Z,100.00
2019-03-24T06:16:54.563Z,100.00
2019-03-24T06:19:37.650Z,100.00
2019-03-24T06:22:27.930Z,100.00
2019-03-24T06:25:10.307Z,100.00
2019-03-24T06:28:00.568Z,100.00
2019-03-24T06:30:43.490Z,100.00
2019-03-24T06:33:33.728Z,100.00
2019-03-24T06:36:16.044Z,100.00
2019-03-24T06:39:07.948Z,100.00
2019-03-24T06:41:50.243Z,100.00
2019-03-24T06:47:42.400Z,100.00
2019-03-24T06:50:33.071Z,100.00
2019-03-24T06:53:15.420Z,100.00
2019-03-24T06:56:05.677Z,100.00
2019-03-24T06:58:47.937Z,100.00
2019-03-24T07:01:38.211Z,100.00
2019-03-24T07:04:21.457Z,100.00
2019-03-24T07:07:11.701Z,100.00
2019-03-24T07:09:54.009Z,100.00
2019-03-24T07:12:37.820Z,100.00
2019-03-24T07:15:41.284Z,100.00
2019-03-24T07:18:23.849Z,85.37
2019-03-24T07:21:14.125Z,65.41
2019-03-24T07:23:57.174Z,56.14
2019-03-24T07:26:47.648Z,49.52
2019-03-24T07:29:32.337Z,46.64
2019-03-24T07:32:23.220Z,46.11
2019-03-24T07:35:07.746Z,43.60
2019-03-24T07:37:58.659Z,41.95
2019-03-24T07:40:42.074Z,39.68
2019-03-24T07:43:32.991Z,37.74
2019-03-24T07:46:15.913Z,36.55
2019-03-24T07:48:48.011Z,35.97
2019-03-24T07:51:38.877Z,36.74
2019-03-24T07:54:22.739Z,35.45
2019-03-24T07:57:13.638Z,35.49
2019-03-24T08:00:05.190Z,35.60
2019-03-24T08:02:56.069Z,36.03
2019-03-24T08:05:39.309Z,35.02
2019-03-24T08:08:30.163Z,34.58
2019-03-24T08:11:14.082Z,34.84
2019-03-24T08:14:05.052Z,34.14
2019-03-24T08:17:07.902Z,34.04
2019-03-24T08:19:51.889Z,34.14
2019-03-24T08:22:42.836Z,33.05
2019-03-24T08:28:31.568Z,34.17
2019-03-24T08:31:22.463Z,35.60
2019-03-24T08:33:54.688Z,37.26
2019-03-24T08:36:45.555Z,37.92
2019-03-24T08:39:28.464Z,40.62
2019-03-24T08:42:19.340Z,42.77
2019-03-24T08:45:01.618Z,47.10
2019-03-24T08:47:51.855Z,52.51
2019-03-24T08:50:34.129Z,59.31
2019-03-24T08:53:24.416Z,63.91
2019-03-24T08:56:07.344Z,73.82
2019-03-24T08:58:57.671Z,71.99
2019-03-24T09:01:40.616Z,73.82
2019-03-24T09:07:26.918Z,76.12
2019-03-24T09:10:17.215Z,77.44
2019-03-24T09:13:07.506Z,77.70
2019-03-24T09:15:57.867Z,73.54
2019-03-24T09:18:52.751Z,71.72
2019-03-24T09:21:33.092Z,75.05
2019-03-24T09:24:23.377Z,71.76
2019-03-24T09:27:05.751Z,75.14
2019-03-24T09:29:56.030Z,66.01
2019-03-24T09:32:38.767Z,68.20
2019-03-24T09:35:29.148Z,67.88
2019-03-24T09:38:11.736Z,67.21
2019-03-24T09:41:02.213Z,69.40
2019-03-24T09:43:45.164Z,67.45
2019-03-24T09:46:35.464Z,62.31
2019-03-24T09:49:18.412Z,58.90
2019-03-24T09:52:08.692Z,59.73
2019-03-24T09:54:51.198Z,65.67
2019-03-24T09:57:41.521Z,59.58
2019-03-24T10:00:24.299Z,59.26
2019-03-24T10:03:14.582Z,61.16
2019-03-24T10:05:57.179Z,57.01
2019-03-24T10:08:47.606Z,58.58
2019-03-24T10:11:30.068Z,53.96
2019-03-24T10:14:20.362Z,52.74
2019-03-24T10:17:03.042Z,53.57
2019-03-24T10:19:53.371Z,50.85
2019-03-24T10:22:36.217Z,53.81
2019-03-24T10:25:26.518Z,49.47
2019-03-24T10:28:09.767Z,50.55
2019-03-24T10:31:00.072Z,48.69
2019-03-24T10:37:20.612Z,50.72
2019-03-24T10:40:05.711Z,46.61
2019-03-24T10:42:56.656Z,47.42
2019-03-24T10:45:47.590Z,48.16
2019-03-24T10:48:38.795Z,46.68
2019-03-24T10:51:29.768Z,47.58
2019-03-24T10:54:32.235Z,47.94
2019-03-24T10:57:15.969Z,46.46
2019-03-24T11:00:08.439Z,46.55
2019-03-24T11:02:59.316Z,45.10
2019-03-24T11:05:50.254Z,44.83
2019-03-24T11:08:41.551Z,45.26
2019-03-24T11:11:32.455Z,44.43
2019-03-24T11:14:23.423Z,46.23
2019-03-24T11:17:14.347Z,45.95
2019-03-24T11:20:05.799Z,45.19
2019-03-24T11:22:56.799Z,45.87
2019-03-24T11:25:47.702Z,45.22
2019-03-24T11:31:34.698Z,44.04
2019-03-24T11:34:25.801Z,42.89
2019-03-24T11:37:16.731Z,41.93
2019-03-24T11:40:19.392Z,41.83
2019-03-24T11:46:04.748Z,41.23
2019-03-24T11:48:48.800Z,40.57
2019-03-24T11:51:39.721Z,41.37
2019-03-24T11:54:30.682Z,39.69
2019-03-24T11:57:21.608Z,42.36
2019-03-24T12:03:48.278Z,41.06
2019-03-24T12:06:39.146Z,39.49
2019-03-24T12:09:22.776Z,39.87
2019-03-24T12:12:13.616Z,39.01
2019-03-24T12:14:56.664Z,37.50
2019-03-24T12:17:47.494Z,38.14
2019-03-24T12:20:30.351Z,39.36
2019-03-24T12:23:21.197Z,38.73
2019-03-24T12:26:04.746Z,37.84
2019-03-24T12:28:55.598Z,37.80
2019-03-24T12:31:39.249Z,38.50
2019-03-24T12:34:30.133Z,37.57
2019-03-24T12:37:13.438Z,36.93
2019-03-24T12:40:04.735Z,38.44
2019-03-24T12:42:48.549Z,37.75
2019-03-24T12:45:39.432Z,38.54
2019-03-24T12:48:30.339Z,37.11
2019-03-24T12:51:15.716Z,37.25
2019-03-24T12:54:06.578Z,37.07
2019-03-24T12:56:38.667Z,35.54
2019-03-24T12:59:29.748Z,34.95
2019-03-24T13:02:13.545Z,36.84
2019-03-24T13:05:15.054Z,35.60
2019-03-24T13:08:00.032Z,35.11
2019-03-24T13:10:50.920Z,35.04
2019-03-24T13:13:34.302Z,35.59
2019-03-24T13:16:25.200Z,36.25
2019-03-24T13:19:08.728Z,34.99
2019-03-24T13:21:59.640Z,34.15
2019-03-24T13:24:42.774Z,32.93
2019-03-24T13:27:33.656Z,32.80
2019-03-24T13:30:17.058Z,33.28
2019-03-24T13:33:07.962Z,36.80
2019-03-24T13:39:07.769Z,35.37
2019-03-24T13:41:51.292Z,36.54
2019-03-24T13:44:42.238Z,33.52
2019-03-24T13:47:44.995Z,33.16
2019-03-24T13:50:31.738Z,33.37
2019-03-24T13:53:21.347Z,33.92
2019-03-24T13:56:04.654Z,32.98
2019-03-24T13:58:55.518Z,33.94
2019-03-24T14:01:38.610Z,33.16
2019-03-24T14:04:29.503Z,32.01
2019-03-24T14:07:13.215Z,32.57
2019-03-24T14:12:59.415Z,32.20
2019-03-24T14:18:43.919Z,32.32
2019-03-24T14:21:30.604Z,27.57
2019-03-24T14:24:21.519Z,25.91
2019-03-24T14:27:12.368Z,26.01
2019-03-24T14:30:03.253Z,26.32
2019-03-24T14:32:54.117Z,26.70
2019-03-24T14:35:37.025Z,26.98
2019-03-24T14:38:27.948Z,28.01
2019-03-24T14:41:11.400Z,28.47
2019-03-24T14:44:02.244Z,28.47
2019-03-24T14:46:45.938Z,29.45
2019-03-24T14:49:36.837Z,28.35
2019-03-24T14:52:21.459Z,28.35
2019-03-24T14:55:12.353Z,29.30
2019-03-24T14:57:55.823Z,26.11
2019-03-24T15:04:01.155Z,28.90
2019-03-24T15:07:05.263Z,29.74
2019-03-24T15:09:48.812Z,30.22
2019-03-24T15:12:39.728Z,28.01
2019-03-24T15:15:22.881Z,29.82
2019-03-24T15:18:13.737Z,28.90
2019-03-24T15:21:05.219Z,28.52
2019-03-24T15:23:49.365Z,27.52
2019-03-24T15:26:32.352Z,28.65
2019-03-24T15:29:23.199Z,27.96
2019-03-24T15:32:06.441Z,26.73
2019-03-24T15:34:57.309Z,27.95
2019-03-24T15:37:41.063Z,27.53
2019-03-24T15:40:31.993Z,27.23
2019-03-24T15:43:15.061Z,26.83
2019-03-24T15:46:05.942Z,27.29
2019-03-24T15:48:50.119Z,26.83
2019-03-24T15:51:41.554Z,26.96
2019-03-24T15:54:24.650Z,27.12
2019-03-24T15:57:15.545Z,27.56
2019-03-24T15:59:59.509Z,27.44
2019-03-24T16:02:50.377Z,27.35
2019-03-24T16:05:32.876Z,27.69
2019-03-24T16:08:23.739Z,27.58
2019-03-24T16:11:06.794Z,28.09
2019-03-24T16:13:57.098Z,28.51
2019-03-24T16:16:47.371Z,28.27
2019-03-24T16:19:30.144Z,28.54
2019-03-24T16:22:20.518Z,28.49
2019-03-24T16:25:10.939Z,28.88
2019-03-24T16:28:01.252Z,28.86
2019-03-24T16:30:51.564Z,28.21
2019-03-24T16:33:41.913Z,28.10
2019-03-24T16:36:32.169Z,27.99
2019-03-24T16:39:22.480Z,27.80
2019-03-24T16:42:12.846Z,28.18
2019-03-24T16:45:03.263Z,27.70
2019-03-24T16:47:53.634Z,28.40
2019-03-24T16:50:44.059Z,28.96
2019-03-24T16:53:34.392Z,28.79
2019-03-24T16:56:24.719Z,29.36
2019-03-24T16:59:07.397Z,29.56
2019-03-24T17:01:38.872Z,30.64
2019-03-24T17:04:29.152Z,31.42
2019-03-24T17:07:11.584Z,32.16
2019-03-24T17:10:01.992Z,32.83
2019-03-24T17:12:52.374Z,33.73
2019-03-24T17:15:42.672Z,34.33
2019-03-24T17:18:33.174Z,34.63
2019-03-24T17:21:23.530Z,35.36
2019-03-24T17:24:13.883Z,35.92
2019-03-24T17:27:04.508Z,36.02
2019-03-24T17:29:54.892Z,36.62
2019-03-24T17:32:45.248Z,37.82
2019-03-24T17:35:35.605Z,39.16
2019-03-24T17:38:25.881Z,40.34
2019-03-24T17:41:16.196Z,42.30
2019-03-24T17:43:47.670Z,43.94
2019-03-24T17:46:37.935Z,44.98
2019-03-24T17:49:21.042Z,46.79
2019-03-24T17:52:11.410Z,47.96
2019-03-24T17:55:01.799Z,48.50
2019-03-24T17:57:52.075Z,48.66
2019-03-24T18:00:45.277Z,49.12
2019-03-24T18:03:48.341Z,49.45
2019-03-24T18:09:27.510Z,50.20
2019-03-24T18:12:18.146Z,50.13
2019-03-24T18:15:09.025Z,50.91
2019-03-24T18:18:18.213Z,51.44
2019-03-24T18:21:08.505Z,51.93
2019-03-24T18:23:58.851Z,52.63
2019-03-24T18:26:49.144Z,52.79
2019-03-24T18:29:33.213Z,53.41
2019-03-24T18:32:23.505Z,53.98
2019-03-24T18:35:06.738Z,54.75
2019-03-24T18:37:57.031Z,56.69
2019-03-24T18:40:47.283Z,58.66
2019-03-24T18:43:30.231Z,61.72
2019-03-24T18:46:20.608Z,62.97
2019-03-24T18:52:05.215Z,69.32
2019-03-24T18:54:48.471Z,72.70
2019-03-24T18:57:38.818Z,77.53
2019-03-24T19:00:29.158Z,81.60
2019-03-24T19:03:20.461Z,86.00
2019-03-24T19:06:10.812Z,87.74
2019-03-24T19:11:56.428Z,92.60
2019-03-24T19:17:43.335Z,95.11
2019-03-24T19:20:33.623Z,95.82
2019-03-24T19:23:16.269Z,98.11
2019-03-24T19:25:47.792Z,100.00
2019-03-24T19:28:38.084Z,100.00
2019-03-24T19:31:20.801Z,100.00
2019-03-24T19:34:22.461Z,100.00
2019-03-24T19:37:06.894Z,100.00
2019-03-24T19:42:52.636Z,100.00
2019-03-24T19:45:42.975Z,100.00
2019-03-24T19:48:33.373Z,100.00
2019-03-24T19:51:23.759Z,100.00
2019-03-24T19:54:14.173Z,100.00
2019-03-24T19:57:04.530Z,100.00
2019-03-24T19:59:36.041Z,100.00
2019-03-24T20:02:45.123Z,100.00
2019-03-24T20:05:27.541Z,100.00
2019-03-24T20:08:18.164Z,100.00
2019-03-24T20:16:31.845Z,100.00
2019-03-24T20:19:24.687Z,100.00
2019-03-24T20:22:06.744Z,100.00
2019-03-24T20:24:57.245Z,100.00
2019-03-24T20:27:47.643Z,100.00
2019-03-24T20:30:37.987Z,100.00
2019-03-24T20:33:28.362Z,100.00
2019-03-24T20:36:18.764Z,100.00
2019-03-24T20:39:11.058Z,100.00
2019-03-24T20:42:01.464Z,100.00
2019-03-24T20:44:51.841Z,100.00
2019-03-24T20:47:42.206Z,100.00
2019-03-24T20:50:32.484Z,100.00
2019-03-24T20:53:22.840Z,100.00
2019-03-24T20:56:13.118Z,100.00
2019-03-24T20:58:55.944Z,100.00
2019-03-24T21:04:41.440Z,100.00
2019-03-24T21:07:31.716Z,100.00
2019-03-24T21:10:14.487Z,100.00
2019-03-24T21:13:04.744Z,100.00
2019-03-24T21:15:47.335Z,100.00
2019-03-24T21:18:37.642Z,100.00
2019-03-24T21:21:20.220Z,100.00
2019-03-24T21:24:10.477Z,100.00
2019-03-24T21:26:42.042Z,100.00
2019-03-24T21:29:32.290Z,100.00
2019-03-24T21:32:15.406Z,100.00
2019-03-24T21:38:21.722Z,100.00
2019-03-24T21:41:12.087Z,100.00
2019-03-24T21:44:02.467Z,100.00
2019-03-24T21:46:52.762Z,100.00
2019-03-24T21:53:05.641Z,100.00
2019-03-24T21:55:48.027Z,100.00
2019-03-24T21:58:38.330Z,100.00
2019-03-24T22:01:28.631Z,100.00
2019-03-24T22:04:10.943Z,100.00
2019-03-24T22:07:01.249Z,100.00
2019-03-24T22:09:51.718Z,100.00
2019-03-24T22:12:42.061Z,100.00
2019-03-24T22:15:32.578Z,100.00
2019-03-24T22:18:22.889Z,100.00
2019-03-24T22:21:05.513Z,100.00
2019-03-24T22:23:36.947Z,100.00
2019-03-24T22:26:27.227Z,100.00
2019-03-24T22:29:10.355Z,100.00
2019-03-24T22:32:00.655Z,100.00
2019-03-24T22:34:43.292Z,100.00
2019-03-24T22:37:52.331Z,100.00
2019-03-24T22:40:34.896Z,100.00
2019-03-24T22:43:43.977Z,100.00
2019-03-24T22:46:26.843Z,100.00
2019-03-24T22:49:17.192Z,100.00
2019-03-24T22:52:07.875Z,100.00
2019-03-24T22:54:52.057Z,100.00
2019-03-24T22:58:01.184Z,100.00
2019-03-24T23:01:03.125Z,100.00
2019-03-24T23:03:46.272Z,100.00
2019-03-24T23:06:36.591Z,100.00
2019-03-24T23:09:18.913Z,100.00
2019-03-24T23:12:09.189Z,100.00
2019-03-24T23:14:52.315Z,100.00
2019-03-24T23:17:42.732Z,100.00
2019-03-24T23:20:25.429Z,100.00
2019-03-24T23:23:15.761Z,100.00
2019-03-24T23:25:58.464Z,100.00
2019-03-24T23:28:30.007Z,100.00
2019-03-24T23:31:20.293Z,100.00
2019-03-24T23:34:03.279Z,100.00
2019-03-24T23:36:53.621Z,100.00
2019-03-24T23:42:37.470Z,100.00
2019-03-24T23:48:31.534Z,100.00
2019-03-24T23:51:15.016Z,100.00
2019-03-24T23:54:05.312Z,100.00
2019-03-24T23:56:48.135Z,100.00
2019-03-24T23:59:39.434Z,100.00
